createdAt,value
2022-09-12T01:15:27.633Z,12.36
2022-09-12T01:20:51.586Z,12.35
2022-09-12T01:26:37.800Z,12.42
2022-09-12T01:32:25.356Z,12.51
2022-09-12T01:38:01.364Z,12.57
2022-09-12T01:43:31.834Z,12.56
2022-09-12T01:48:53.063Z,12.50
2022-09-12T01:54:21.773Z,12.46
2022-09-12T01:59:50.624Z,12.59
2022-09-12T02:05:17.319Z,12.66
2022-09-12T02:10:53.815Z,12.70
2022-09-12T02:16:26.321Z,12.59
2022-09-12T02:21:53.457Z,12.68
2022-09-12T02:27:18.286Z,12.70
2022-09-12T02:33:01.478Z,12.72
2022-09-12T02:38:33.636Z,12.71
2022-09-12T02:43:54.879Z,12.71
2022-09-12T02:49:17.382Z,12.72
2022-09-12T02:54:38.971Z,12.77
2022-09-12T03:00:01.935Z,12.71
2022-09-12T03:05:28.670Z,12.70
2022-09-12T03:11:32.534Z,12.72
2022-09-12T03:16:55.953Z,12.67
2022-09-12T03:22:16.885Z,12.61
2022-09-12T03:27:45.434Z,12.53
2022-09-12T03:33:06.700Z,12.42
2022-09-12T03:38:27.710Z,12.40
2022-09-12T03:43:48.718Z,12.42
2022-09-12T03:49:09.139Z,12.39
2022-09-12T03:54:30.019Z,12.47
2022-09-12T03:59:50.859Z,12.44
2022-09-12T04:05:11.636Z,12.42
2022-09-12T04:10:32.537Z,12.44
2022-09-12T04:16:00.256Z,12.43
2022-09-12T04:21:23.911Z,12.42
2022-09-12T04:26:44.959Z,12.36
2022-09-12T04:32:05.976Z,12.39
2022-09-12T04:37:26.707Z,12.39
2022-09-12T04:42:47.701Z,12.30
2022-09-12T04:48:08.421Z,12.35
2022-09-12T04:53:29.293Z,12.36
2022-09-12T04:58:51.527Z,12.36
2022-09-12T05:04:13.553Z,12.44
2022-09-12T05:09:34.391Z,12.47
2022-09-12T05:14:55.708Z,12.50
2022-09-12T05:20:17.373Z,12.61
2022-09-12T05:25:38.453Z,12.66
2022-09-12T05:31:02.357Z,12.65
2022-09-12T05:36:29.266Z,12.71
2022-09-12T05:41:50.001Z,12.88
2022-09-12T05:47:11.648Z,13.03
2022-09-12T05:52:32.720Z,13.28
2022-09-12T05:57:54.115Z,13.71
2022-09-12T06:03:15.436Z,13.84
2022-09-12T06:08:36.570Z,13.77
2022-09-12T06:13:58.634Z,13.98
2022-09-12T06:19:21.698Z,14.39
2022-09-12T06:24:42.490Z,14.59
2022-09-12T06:30:03.401Z,14.62
2022-09-12T06:35:24.048Z,14.79
2022-09-12T06:40:45.141Z,15.04
2022-09-12T06:46:06.504Z,15.05
2022-09-12T06:51:29.159Z,15.15
2022-09-12T06:56:49.941Z,15.26
2022-09-12T07:02:10.705Z,15.49
2022-09-12T07:07:34.294Z,15.51
2022-09-12T07:12:55.248Z,16.07
2022-09-12T07:18:16.234Z,16.64
2022-09-12T07:23:37.120Z,16.63
2022-09-12T07:29:18.628Z,17.01
2022-09-12T07:34:39.967Z,17.56
2022-09-12T07:40:02.312Z,17.72
2022-09-12T07:45:23.286Z,18.58
2022-09-12T07:50:45.191Z,19.63
2022-09-12T07:56:07.750Z,19.75
2022-09-12T08:01:29.803Z,20.69
2022-09-12T08:06:51.334Z,21.44
2022-09-12T08:12:12.630Z,22.59
2022-09-12T08:17:33.516Z,23.61
2022-09-12T08:22:54.363Z,24.86
2022-09-12T08:28:15.155Z,26.16
2022-09-12T08:33:36.103Z,27.62
2022-09-12T08:39:03.343Z,29.99
2022-09-12T08:44:41.369Z,37.81
2022-09-12T08:50:08.911Z,48.39
2022-09-12T08:55:51.316Z,46.34
2022-09-12T09:01:38.526Z,32.21
2022-09-12T09:07:24.580Z,39.65
2022-09-12T09:13:05.458Z,34.69
2022-09-12T09:18:32.990Z,37.19
2022-09-12T09:24:02.412Z,31.22
2022-09-12T09:29:41.527Z,26.52
2022-09-12T09:35:18.287Z,24.42
2022-09-12T09:40:42.517Z,23.10
2022-09-12T09:46:03.871Z,22.42
2022-09-12T09:51:28.098Z,23.01
2022-09-12T09:56:49.477Z,26.59
2022-09-12T10:02:13.644Z,40.29
2022-09-12T10:07:34.781Z,48.70
2022-09-12T10:13:22.897Z,51.95
2022-09-12T10:18:43.875Z,45.92
2022-09-12T10:24:36.640Z,39.11
2022-09-12T10:30:18.679Z,38.05
2022-09-12T10:35:49.771Z,35.84
2022-09-12T10:41:11.834Z,36.89
2022-09-12T10:46:33.009Z,47.05
2022-09-12T10:51:55.499Z,50.68
2022-09-12T10:57:22.676Z,36.11
2022-09-12T11:03:05.534Z,29.92
2022-09-12T11:08:38.464Z,27.34
2022-09-12T11:14:19.132Z,26.65
2022-09-12T11:19:51.082Z,35.92
2022-09-12T11:25:18.212Z,40.43
2022-09-12T11:31:17.511Z,38.24
2022-09-12T11:37:25.861Z,31.57
2022-09-12T11:42:49.491Z,27.68
2022-09-12T11:48:45.426Z,30.61
2022-09-12T11:54:18.494Z,30.49
2022-09-12T11:59:46.732Z,31.05
2022-09-12T12:05:18.053Z,28.04
2022-09-12T12:10:48.515Z,25.97
2022-09-12T12:16:26.921Z,24.89
2022-09-12T12:21:49.729Z,25.31
2022-09-12T12:27:45.167Z,25.55
2022-09-12T12:33:18.233Z,25.33
2022-09-12T12:38:43.177Z,26.14
2022-09-12T12:44:48.563Z,27.14
2022-09-12T12:50:20.781Z,26.75
2022-09-12T12:55:41.639Z,26.73
2022-09-12T13:01:13.655Z,26.46
2022-09-12T13:06:34.371Z,26.55
2022-09-12T13:12:08.554Z,26.94
2022-09-12T13:17:43.440Z,27.30
2022-09-12T13:23:04.640Z,27.10
2022-09-12T13:28:26.465Z,26.72
2022-09-12T13:33:54.799Z,26.30
2022-09-12T13:39:18.280Z,26.17
2022-09-12T13:44:53.177Z,25.93
2022-09-12T13:50:21.261Z,25.88
2022-09-12T13:55:46.199Z,25.77
2022-09-12T14:01:14.743Z,25.26
2022-09-12T14:06:51.035Z,25.13
2022-09-12T14:12:29.505Z,25.02
2022-09-12T14:17:52.755Z,24.85
2022-09-12T14:23:25.036Z,24.55
2022-09-12T14:28:49.697Z,24.49
2022-09-12T14:34:15.157Z,24.32
2022-09-12T14:39:42.925Z,24.17
2022-09-12T14:45:16.657Z,23.92
2022-09-12T14:50:37.521Z,23.70
2022-09-12T14:56:10.856Z,23.49
2022-09-12T15:01:32.199Z,23.32
2022-09-12T15:06:53.632Z,22.96
2022-09-12T15:12:14.546Z,22.78
2022-09-12T15:17:35.183Z,22.67
2022-09-12T15:22:56.688Z,22.59
2022-09-12T15:28:20.965Z,22.42
2022-09-12T15:33:41.744Z,22.22
2022-09-12T15:39:02.602Z,21.91
2022-09-12T15:44:23.754Z,21.69
2022-09-12T15:49:44.750Z,21.69
2022-09-12T15:55:12.333Z,21.58
2022-09-12T16:00:32.879Z,21.41
2022-09-12T16:06:01.734Z,21.23
2022-09-12T16:11:26.662Z,20.93
2022-09-12T16:16:54.639Z,20.71
2022-09-12T16:22:15.408Z,20.44
2022-09-12T16:27:36.979Z,20.18
2022-09-12T16:32:58.274Z,20.01
2022-09-12T16:58:21.615Z,19.36
2022-09-12T17:03:43.821Z,19.28
2022-09-12T17:09:05.261Z,19.03
2022-09-12T17:14:26.830Z,18.80
2022-09-12T17:19:47.722Z,18.74
2022-09-12T17:25:08.711Z,18.60
2022-09-12T17:30:29.500Z,18.46
2022-09-12T17:35:50.414Z,18.33
2022-09-12T17:41:17.608Z,18.07
2022-09-12T17:46:40.072Z,17.83
2022-09-12T17:52:02.315Z,17.72
2022-09-12T17:57:23.185Z,17.69
2022-09-12T18:02:45.344Z,17.53
2022-09-12T18:08:06.402Z,17.37
2022-09-12T18:13:27.170Z,17.26
2022-09-12T18:18:50.935Z,17.10
2022-09-12T18:24:12.547Z,16.96
2022-09-12T18:29:33.610Z,16.87
2022-09-12T18:34:54.600Z,16.86
2022-09-12T18:40:15.476Z,16.79
2022-09-12T18:45:37.128Z,16.64
2022-09-12T18:51:05.681Z,16.58
2022-09-12T18:56:32.216Z,16.45
2022-09-12T19:01:53.356Z,16.38
2022-09-12T19:07:16.968Z,16.28
2022-09-12T19:12:38.248Z,16.25
2022-09-12T19:17:58.967Z,16.19
2022-09-12T19:23:19.687Z,16.00
2022-09-12T19:28:41.361Z,15.88
2022-09-12T19:34:05.376Z,15.84
2022-09-12T19:39:26.499Z,15.74
2022-09-12T19:44:47.510Z,15.66
2022-09-12T19:50:08.628Z,15.55
2022-09-12T19:55:29.476Z,15.41
2022-09-12T20:00:50.279Z,15.20
2022-09-12T20:06:13.364Z,15.09
2022-09-12T20:11:34.025Z,15.08
2022-09-12T20:16:54.872Z,14.94
2022-09-12T20:22:15.516Z,14.85
2022-09-12T20:27:36.597Z,14.74
2022-09-12T20:32:57.299Z,14.79
2022-09-12T20:38:18.339Z,14.67
2022-09-12T20:43:40.054Z,14.62
2022-09-12T20:49:01.160Z,14.66
2022-09-12T20:54:21.804Z,14.61
2022-09-12T20:59:42.583Z,14.49
2022-09-12T21:05:03.429Z,14.43
2022-09-12T21:10:24.025Z,14.30
2022-09-12T21:15:45.156Z,14.21
2022-09-12T21:21:06.061Z,14.09
2022-09-12T21:26:26.950Z,14.17
2022-09-12T21:31:47.894Z,14.13
2022-09-12T21:37:08.816Z,14.01
2022-09-12T21:42:29.518Z,13.91
